sensor_id;sensor_type;location;lat;lon;timestamp;pressure;altitude;pressure_sealevel;temperature;humidity
1694;BME280;71975;47.068;15.408;2023-11-21T03:49:19;96816.22;;;8.65;84.43
1694;BME280;71975;47.068;15.408;2023-11-21T03:54:22;96830.91;;;8.64;83.97
1694;BME280;71975;47.068;15.408;2023-11-21T03:59:25;96828.91;;;8.68;83.79
1694;BME280;71975;47.068;15.408;2023-11-21T04:04:29;96838.09;;;8.74;84.02
1694;BME280;71975;47.068;15.408;2023-11-21T04:09:33;96837.25;;;8.77;84.56
1694;BME280;71975;47.068;15.408;2023-11-21T04:14:36;96837.63;;;8.79;85.30
1694;BME280;71975;47.068;15.408;2023-11-21T04:19:40;96844.53;;;8.80;85.89
1694;BME280;71975;47.068;15.408;2023-11-21T04:24:43;96848.47;;;8.76;88.68
1694;BME280;71975;47.068;15.408;2023-11-21T04:29:46;96840.69;;;8.81;88.25
1694;BME280;71975;47.068;15.408;2023-11-21T04:34:50;96822.59;;;8.78;91.95
1694;BME280;71975;47.068;15.408;2023-11-21T04:39:53;96820.59;;;8.82;89.63
1694;BME280;71975;47.068;15.408;2023-11-21T04:44:57;96825.66;;;8.80;91.01
1694;BME280;71975;47.068;15.408;2023-11-21T04:50:01;96830.69;;;8.78;92.23
1694;BME280;71975;47.068;15.408;2023-11-21T04:55:05;96828.13;;;8.67;93.22
1694;BME280;71975;47.068;15.408;2023-11-21T05:00:13;96832.31;;;8.72;92.79
1694;BME280;71975;47.068;15.408;2023-11-21T05:05:19;96837.72;;;8.72;92.59
1694;BME280;71975;47.068;15.408;2023-11-21T05:10:22;96835.44;;;8.71;93.52
1694;BME280;71975;47.068;15.408;2023-11-21T05:15:25;96841.25;;;8.69;94.70
1694;BME280;71975;47.068;15.408;2023-11-21T05:20:30;96847.53;;;8.59;96.71
1694;BME280;71975;47.068;15.408;2023-11-21T05:25:34;96853.09;;;8.75;95.78
1694;BME280;71975;47.068;15.408;2023-11-21T05:30:41;96848.59;;;8.65;97.32
1694;BME280;71975;47.068;15.408;2023-11-21T05:35:47;96857.06;;;8.67;97.16
1694;BME280;71975;47.068;15.408;2023-11-21T05:40:50;96856.88;;;8.81;95.63
1694;BME280;71975;47.068;15.408;2023-11-21T05:45:53;96859.50;;;8.85;96.10
1694;BME280;71975;47.068;15.408;2023-11-21T05:50:58;96872.31;;;8.81;97.05
1694;BME280;71975;47.068;15.408;2023-11-21T05:56:04;96873.16;;;8.74;97.72
1694;BME280;71975;47.068;15.408;2023-11-21T06:01:07;96881.03;;;8.61;98.75
1694;BME280;71975;47.068;15.408;2023-11-21T06:06:12;96894.16;;;8.59;100.00
1694;BME280;71975;47.068;15.408;2023-11-21T06:11:15;96907.28;;;8.57;100.00
1694;BME280;71975;47.068;15.408;2023-11-21T06:16:19;96898.97;;;8.45;100.00
1694;BME280;71975;47.068;15.408;2023-11-21T06:21:24;96901.59;;;8.52;100.00
1694;BME280;71975;47.068;15.408;2023-11-21T06:26:27;96899.09;;;8.34;100.00
1694;BME280;71975;47.068;15.408;2023-11-21T06:31:30;96904.38;;;8.45;100.00
1694;BME280;71975;47.068;15.408;2023-11-21T06:36:35;96905.88;;;8.46;100.00
1694;BME280;71975;47.068;15.408;2023-11-21T06:41:38;96918.22;;;8.47;100.00
1694;BME280;71975;47.068;15.408;2023-11-21T06:46:41;96913.50;;;8.54;100.00
1694;BME280;71975;47.068;15.408;2023-11-21T06:51:46;96919.19;;;8.60;100.00
1694;BME280;71975;47.068;15.408;2023-11-21T06:56:49;96921.25;;;8.49;100.00
1694;BME280;71975;47.068;15.408;2023-11-21T07:01:52;96926.63;;;8.52;100.00
1694;BME280;71975;47.068;15.408;2023-11-21T07:06:56;96926.53;;;8.59;100.00
1694;BME280;71975;47.068;15.408;2023-11-21T07:11:59;96939.88;;;8.70;100.00
1694;BME280;71975;47.068;15.408;2023-11-21T07:17:03;96935.22;;;8.74;100.00
1694;BME280;71975;47.068;15.408;2023-11-21T07:22:07;96933.38;;;8.67;100.00
1694;BME280;71975;47.068;15.408;2023-11-21T07:27:10;96931.75;;;8.74;100.00
1694;BME280;71975;47.068;15.408;2023-11-21T07:32:13;96947.81;;;8.84;100.00
1694;BME280;71975;47.068;15.408;2023-11-21T07:37:18;96940.44;;;8.88;100.00
1694;BME280;71975;47.068;15.408;2023-11-21T07:42:21;96944.72;;;8.86;100.00
1694;BME280;71975;47.068;15.408;2023-11-21T07:47:24;96932.97;;;8.99;100.00
1694;BME280;71975;47.068;15.408;2023-11-21T07:52:30;96937.00;;;9.14;100.00
1694;BME280;71975;47.068;15.408;2023-11-21T07:57:33;96937.09;;;9.34;100.00
1694;BME280;71975;47.068;15.408;2023-11-21T08:02:37;96929.91;;;9.51;99.69
1694;BME280;71975;47.068;15.408;2023-11-21T08:07:41;96942.03;;;9.66;97.78
1694;BME280;71975;47.068;15.408;2023-11-21T08:12:44;96931.44;;;9.75;98.70
1694;BME280;71975;47.068;15.408;2023-11-21T08:17:47;96937.31;;;9.70;98.45
1694;BME280;71975;47.068;15.408;2023-11-21T08:22:52;96930.81;;;9.67;97.46
1694;BME280;71975;47.068;15.408;2023-11-21T08:27:55;96920.59;;;9.78;97.20
1694;BME280;71975;47.068;15.408;2023-11-21T08:32:58;96911.38;;;9.76;97.10
1694;BME280;71975;47.068;15.408;2023-11-21T08:38:02;96924.41;;;9.81;96.43
1694;BME280;71975;47.068;15.408;2023-11-21T08:43:05;96926.75;;;9.79;94.87
1694;BME280;71975;47.068;15.408;2023-11-21T08:48:09;96915.81;;;9.86;94.19
1694;BME280;71975;47.068;15.408;2023-11-21T08:53:14;96915.22;;;9.98;94.49
1694;BME280;71975;47.068;15.408;2023-11-21T08:58:18;96914.63;;;10.10;94.40
1694;BME280;71975;47.068;15.408;2023-11-21T09:03:21;96916.75;;;10.22;93.17
1694;BME280;71975;47.068;15.408;2023-11-21T09:08:25;96912.53;;;10.21;93.10
1694;BME280;71975;47.068;15.408;2023-11-21T09:13:29;96915.78;;;10.32;93.76
1694;BME280;71975;47.068;15.408;2023-11-21T09:18:33;96911.78;;;10.40;93.29
1694;BME280;71975;47.068;15.408;2023-11-21T09:23:37;96911.56;;;10.51;93.01
1694;BME280;71975;47.068;15.408;2023-11-21T09:28:40;96910.72;;;10.54;92.51
1694;BME280;71975;47.068;15.408;2023-11-21T09:33:45;96909.41;;;10.62;91.90
1694;BME280;71975;47.068;15.408;2023-11-21T09:38:51;96912.41;;;10.68;91.53
1694;BME280;71975;47.068;15.408;2023-11-21T09:43:56;96907.84;;;10.81;90.84
1694;BME280;71975;47.068;15.408;2023-11-21T09:49:03;96907.03;;;10.84;91.05
1694;BME280;71975;47.068;15.408;2023-11-21T09:54:13;96898.22;;;10.80;90.80
1694;BME280;71975;47.068;15.408;2023-11-21T09:59:17;96896.69;;;10.79;90.70
1694;BME280;71975;47.068;15.408;2023-11-21T10:04:20;96894.47;;;10.74;92.99
1694;BME280;71975;47.068;15.408;2023-11-21T10:09:25;96880.25;;;10.70;92.93
1694;BME280;71975;47.068;15.408;2023-11-21T10:14:30;96892.97;;;10.73;93.90
1694;BME280;71975;47.068;15.408;2023-11-21T10:19:33;96892.34;;;10.65;93.37
1694;BME280;71975;47.068;15.408;2023-11-21T10:24:37;96884.72;;;10.60;94.72
1694;BME280;71975;47.068;15.408;2023-11-21T10:29:52;96892.06;;;10.59;95.16
1694;BME280;71975;47.068;15.408;2023-11-21T10:34:56;96892.84;;;10.60;95.05
1694;BME280;71975;47.068;15.408;2023-11-21T10:40:01;96888.53;;;10.62;95.60
1694;BME280;71975;47.068;15.408;2023-11-21T10:45:07;96873.81;;;10.63;94.16
1694;BME280;71975;47.068;15.408;2023-11-21T10:50:18;96884.34;;;10.78;93.59
1694;BME280;71975;47.068;15.408;2023-11-21T10:55:23;96881.53;;;10.65;94.24
1694;BME280;71975;47.068;15.408;2023-11-21T11:00:29;96889.81;;;10.74;93.62
1694;BME280;71975;47.068;15.408;2023-11-21T11:05:32;96882.19;;;10.69;93.84
1694;BME280;71975;47.068;15.408;2023-11-21T11:10:37;96878.72;;;10.68;93.35
1694;BME280;71975;47.068;15.408;2023-11-21T11:15:40;96879.44;;;10.73;93.42
1694;BME280;71975;47.068;15.408;2023-11-21T11:20:45;96877.25;;;10.84;91.44
1694;BME280;71975;47.068;15.408;2023-11-21T11:26:06;96884.34;;;11.13;89.73
1694;BME280;71975;47.068;15.408;2023-11-21T11:31:18;96891.84;;;10.90;87.77
1694;BME280;71975;47.068;15.408;2023-11-21T11:36:30;96878.28;;;10.90;89.16
1694;BME280;71975;47.068;15.408;2023-11-21T11:41:36;96876.78;;;11.05;88.05
1694;BME280;71975;47.068;15.408;2023-11-21T11:46:42;96873.06;;;11.15;88.12
1694;BME280;71975;47.068;15.408;2023-11-21T11:51:48;96867.16;;;11.20;87.16
1694;BME280;71975;47.068;15.408;2023-11-21T11:56:52;96876.13;;;11.17;87.95
1694;BME280;71975;47.068;15.408;2023-11-21T12:01:57;96869.34;;;11.09;88.59
1694;BME280;71975;47.068;15.408;2023-11-21T12:07:02;96872.34;;;10.95;89.69
1694;BME280;71975;47.068;15.408;2023-11-21T12:12:08;96856.31;;;11.04;89.52
1694;BME280;71975;47.068;15.408;2023-11-21T12:17:11;96864.94;;;10.99;89.50
1694;BME280;71975;47.068;15.408;2023-11-21T12:22:15;96850.81;;;11.23;88.89
1694;BME280;71975;47.068;15.408;2023-11-21T12:27:20;96848.63;;;11.18;87.65
1694;BME280;71975;47.068;15.408;2023-11-21T12:32:23;96839.06;;;11.14;86.96
1694;BME280;71975;47.068;15.408;2023-11-21T12:37:27;96851.56;;;11.24;86.10
1694;BME280;71975;47.068;15.408;2023-11-21T12:42:31;96851.50;;;11.27;85.88
1694;BME280;71975;47.068;15.408;2023-11-21T12:47:35;96841.91;;;11.39;85.16
1694;BME280;71975;47.068;15.408;2023-11-21T12:52:39;96838.69;;;11.44;85.22
1694;BME280;71975;47.068;15.408;2023-11-21T12:57:44;96826.00;;;11.25;86.58
1694;BME280;71975;47.068;15.408;2023-11-21T13:02:48;96828.56;;;11.16;86.87
1694;BME280;71975;47.068;15.408;2023-11-21T13:07:51;96819.16;;;11.20;86.48
1694;BME280;71975;47.068;15.408;2023-11-21T13:12:58;96820.16;;;11.26;86.16
1694;BME280;71975;47.068;15.408;2023-11-21T13:18:02;96812.13;;;11.07;87.70
1694;BME280;71975;47.068;15.408;2023-11-21T13:23:07;96808.38;;;11.17;87.72
1694;BME280;71975;47.068;15.408;2023-11-21T13:28:14;96812.19;;;11.19;87.57
1694;BME280;71975;47.068;15.408;2023-11-21T13:33:18;96806.53;;;11.30;86.41
1694;BME280;71975;47.068;15.408;2023-11-21T13:38:23;96813.13;;;11.29;86.02
1694;BME280;71975;47.068;15.408;2023-11-21T13:43:28;96814.06;;;11.22;87.19
1694;BME280;71975;47.068;15.408;2023-11-21T13:48:33;96820.75;;;11.18;87.09
1694;BME280;71975;47.068;15.408;2023-11-21T13:53:44;96821.16;;;11.00;87.93
1694;BME280;71975;47.068;15.408;2023-11-21T13:58:51;96820.84;;;10.98;88.79
1694;BME280;71975;47.068;15.408;2023-11-21T14:03:55;96825.69;;;11.07;88.09
1694;BME280;71975;47.068;15.408;2023-11-21T14:09:04;96821.16;;;11.00;88.27
1694;BME280;71975;47.068;15.408;2023-11-21T14:14:10;96815.84;;;10.97;88.97
1694;BME280;71975;47.068;15.408;2023-11-21T14:19:13;96812.78;;;10.95;89.54
1694;BME280;71975;47.068;15.408;2023-11-21T14:24:18;96822.09;;;10.94;89.88
1694;BME280;71975;47.068;15.408;2023-11-21T14:29:23;96821.75;;;10.92;89.67
1694;BME280;71975;47.068;15.408;2023-11-21T14:34:26;96823.22;;;11.12;88.16
1694;BME280;71975;47.068;15.408;2023-11-21T14:39:29;96831.09;;;11.07;89.25
1694;BME280;71975;47.068;15.408;2023-11-21T14:44:34;96845.28;;;10.95;89.99
1694;BME280;71975;47.068;15.408;2023-11-21T14:49:41;96851.72;;;10.85;91.00
1694;BME280;71975;47.068;15.408;2023-11-21T14:54:54;96853.19;;;10.70;91.95
1694;BME280;71975;47.068;15.408;2023-11-21T15:00:20;96852.38;;;10.53;93.94
1694;BME280;71975;47.068;15.408;2023-11-21T15:05:46;96868.78;;;10.46;94.48
1694;BME280;71975;47.068;15.408;2023-11-21T15:10:50;96876.47;;;10.47;94.72
1694;BME280;71975;47.068;15.408;2023-11-21T15:15:58;96883.75;;;10.31;96.50
1694;BME280;71975;47.068;15.408;2023-11-21T15:21:09;96879.16;;;10.28;96.83
1694;BME280;71975;47.068;15.408;2023-11-21T15:26:13;96882.63;;;10.28;96.75
1694;BME280;71975;47.068;15.408;2023-11-21T15:31:18;96890.59;;;10.16;98.45
1694;BME280;71975;47.068;15.408;2023-11-21T15:36:26;96893.38;;;10.12;99.31
1694;BME280;71975;47.068;15.408;2023-11-21T15:41:29;96899.94;;;10.11;100.00
1694;BME280;71975;47.068;15.408;2023-11-21T15:46:34;96904.69;;;10.03;100.00
1694;BME280;71975;47.068;15.408;2023-11-21T15:51:38;96900.81;;;10.05;100.00
1694;BME280;71975;47.068;15.408;2023-11-21T15:56:41;96894.75;;;10.20;100.00
1694;BME280;71975;47.068;15.408;2023-11-21T16:01:47;96908.38;;;10.17;100.00
1694;BME280;71975;47.068;15.408;2023-11-21T16:06:50;96918.84;;;10.11;98.79
1694;BME280;71975;47.068;15.408;2023-11-21T16:11:54;96910.75;;;10.11;98.66
1694;BME280;71975;47.068;15.408;2023-11-21T16:17:03;96918.06;;;10.14;99.17
1694;BME280;71975;47.068;15.408;2023-11-21T16:22:08;96926.81;;;9.98;100.00
1694;BME280;71975;47.068;15.408;2023-11-21T16:27:12;96932.97;;;9.99;100.00
1694;BME280;71975;47.068;15.408;2023-11-21T16:32:17;96937.03;;;9.87;100.00
1694;BME280;71975;47.068;15.408;2023-11-21T16:37:21;96936.31;;;9.83;100.00
1694;BME280;71975;47.068;15.408;2023-11-21T16:42:24;96944.50;;;9.80;100.00
1694;BME280;71975;47.068;15.408;2023-11-21T16:47:30;96948.38;;;9.79;100.00
1694;BME280;71975;47.068;15.408;2023-11-21T16:52:35;96955.31;;;9.80;100.00
1694;BME280;71975;47.068;15.408;2023-11-21T16:57:40;96949.56;;;9.78;99.80
1694;BME280;71975;47.068;15.408;2023-11-21T17:02:44;96955.78;;;9.75;98.60
1694;BME280;71975;47.068;15.408;2023-11-21T17:07:48;96955.13;;;9.67;99.59
1694;BME280;71975;47.068;15.408;2023-11-21T17:12:51;96956.94;;;9.74;99.12
1694;BME280;71975;47.068;15.408;2023-11-21T17:17:55;96957.31;;;9.76;99.12
1694;BME280;71975;47.068;15.408;2023-11-21T17:23:00;96963.53;;;9.73;99.20
1694;BME280;71975;47.068;15.408;2023-11-21T17:28:04;96963.59;;;9.69;99.76
1694;BME280;71975;47.068;15.408;2023-11-21T17:33:09;96978.22;;;9.72;99.86
1694;BME280;71975;47.068;15.408;2023-11-21T17:38:12;96983.63;;;9.72;100.00
1694;BME280;71975;47.068;15.408;2023-11-21T17:43:15;96987.50;;;9.71;100.00
1694;BME280;71975;47.068;15.408;2023-11-21T17:48:20;96997.09;;;9.75;100.00
1694;BME280;71975;47.068;15.408;2023-11-21T17:53:24;96985.94;;;9.73;100.00
1694;BME280;71975;47.068;15.408;2023-11-21T17:58:27;96998.22;;;9.78;100.00
1694;BME280;71975;47.068;15.408;2023-11-21T18:03:31;96992.16;;;9.70;100.00
1694;BME280;71975;47.068;15.408;2023-11-21T18:08:35;96997.34;;;9.58;100.00
1694;BME280;71975;47.068;15.408;2023-11-21T18:13:39;96996.88;;;9.63;100.00
1694;BME280;71975;47.068;15.408;2023-11-21T18:18:43;96998.31;;;9.71;98.96
1694;BME280;71975;47.068;15.408;2023-11-21T18:23:46;97004.88;;;9.43;100.00
1694;BME280;71975;47.068;15.408;2023-11-21T18:28:49;97012.31;;;9.35;100.00
1694;BME280;71975;47.068;15.408;2023-11-21T18:33:54;97010.44;;;9.32;100.00
1694;BME280;71975;47.068;15.408;2023-11-21T18:38:57;97019.72;;;9.31;100.00
1694;BME280;71975;47.068;15.408;2023-11-21T18:44:00;97024.88;;;9.22;100.00
1694;BME280;71975;47.068;15.408;2023-11-21T18:49:05;97028.25;;;9.30;100.00
1694;BME280;71975;47.068;15.408;2023-11-21T18:54:08;97035.00;;;9.11;100.00
1694;BME280;71975;47.068;15.408;2023-11-21T18:59:11;97033.41;;;9.17;100.00
1694;BME280;71975;47.068;15.408;2023-11-21T19:04:15;97026.88;;;9.15;100.00
1694;BME280;71975;47.068;15.408;2023-11-21T19:09:22;97043.13;;;9.11;100.00
1694;BME280;71975;47.068;15.408;2023-11-21T19:14:25;97040.13;;;9.06;100.00
1694;BME280;71975;47.068;15.408;2023-11-21T19:19:29;97040.13;;;9.02;100.00
1694;BME280;71975;47.068;15.408;2023-11-21T19:24:36;97039.38;;;9.02;100.00
1694;BME280;71975;47.068;15.408;2023-11-21T19:29:42;97043.63;;;8.99;100.00
1694;BME280;71975;47.068;15.408;2023-11-21T19:34:46;97040.63;;;8.94;100.00
1694;BME280;71975;47.068;15.408;2023-11-21T19:39:49;97042.25;;;8.84;100.00
1694;BME280;71975;47.068;15.408;2023-11-21T19:44:52;97056.16;;;8.86;100.00
1694;BME280;71975;47.068;15.408;2023-11-21T19:49:57;97060.44;;;8.80;100.00
1694;BME280;71975;47.068;15.408;2023-11-21T19:55:00;97072.03;;;8.77;100.00
1694;BME280;71975;47.068;15.408;2023-11-21T20:00:04;97073.28;;;8.69;100.00
1694;BME280;71975;47.068;15.408;2023-11-21T20:05:10;97073.78;;;8.57;100.00
1694;BME280;71975;47.068;15.408;2023-11-21T20:10:17;97084.22;;;8.55;100.00
1694;BME280;71975;47.068;15.408;2023-11-21T20:15:22;97087.72;;;8.52;100.00
1694;BME280;71975;47.068;15.408;2023-11-21T20:20:29;97088.44;;;8.56;100.00
1694;BME280;71975;47.068;15.408;2023-11-21T20:25:32;97079.13;;;8.64;100.00
1694;BME280;71975;47.068;15.408;2023-11-21T20:30:36;97081.47;;;8.58;100.00
1694;BME280;71975;47.068;15.408;2023-11-21T20:35:41;97089.63;;;8.55;100.00
1694;BME280;71975;47.068;15.408;2023-11-21T20:40:45;97099.22;;;8.56;100.00
1694;BME280;71975;47.068;15.408;2023-11-21T20:45:49;97096.53;;;8.56;100.00
1694;BME280;71975;47.068;15.408;2023-11-21T20:50:53;97107.78;;;8.47;100.00
1694;BME280;71975;47.068;15.408;2023-11-21T20:55:56;97099.66;;;8.51;100.00
1694;BME280;71975;47.068;15.408;2023-11-21T21:01:03;97097.75;;;8.48;100.00
1694;BME280;71975;47.068;15.408;2023-11-21T21:06:07;97096.22;;;8.47;100.00
1694;BME280;71975;47.068;15.408;2023-11-21T21:11:11;97103.53;;;8.46;100.00
1694;BME280;71975;47.068;15.408;2023-11-21T21:16:14;97097.00;;;8.47;100.00
1694;BME280;71975;47.068;15.408;2023-11-21T21:21:19;97092.75;;;8.50;100.00
1694;BME280;71975;47.068;15.408;2023-11-21T21:26:23;97098.84;;;8.54;100.00
1694;BME280;71975;47.068;15.408;2023-11-21T21:31:26;97101.41;;;8.72;100.00
1694;BME280;71975;47.068;15.408;2023-11-21T21:36:30;97106.16;;;8.57;100.00
1694;BME280;71975;47.068;15.408;2023-11-21T21:41:34;97107.59;;;8.68;100.00
1694;BME280;71975;47.068;15.408;2023-11-21T21:46:38;97106.09;;;8.64;100.00
1694;BME280;71975;47.068;15.408;2023-11-21T21:51:43;97116.97;;;8.53;100.00
1694;BME280;71975;47.068;15.408;2023-11-21T21:56:46;97116.69;;;8.41;100.00
1694;BME280;71975;47.068;15.408;2023-11-21T22:01:49;97117.50;;;8.34;100.00
1694;BME280;71975;47.068;15.408;2023-11-21T22:06:54;97118.34;;;8.28;100.00
1694;BME280;71975;47.068;15.408;2023-11-21T22:11:57;97124.16;;;8.19;100.00
1694;BME280;71975;47.068;15.408;2023-11-21T22:17:00;97131.13;;;8.10;100.00
1694;BME280;71975;47.068;15.408;2023-11-21T22:22:05;97136.59;;;8.02;100.00
1694;BME280;71975;47.068;15.408;2023-11-21T22:27:08;97142.38;;;7.97;100.00
1694;BME280;71975;47.068;15.408;2023-11-21T22:32:11;97144.75;;;7.88;100.00
1694;BME280;71975;47.068;15.408;2023-11-21T22:37:15;97152.47;;;7.86;100.00
1694;BME280;71975;47.068;15.408;2023-11-21T22:42:18;97154.03;;;7.80;100.00
1694;BME280;71975;47.068;15.408;2023-11-21T22:47:22;97154.44;;;7.79;100.00
1694;BME280;71975;47.068;15.408;2023-11-21T22:52:26;97148.38;;;7.57;100.00
1694;BME280;71975;47.068;15.408;2023-11-21T22:57:30;97158.00;;;7.51;100.00
1694;BME280;71975;47.068;15.408;2023-11-21T23:02:34;97165.34;;;7.47;100.00
1694;BME280;71975;47.068;15.408;2023-11-21T23:07:38;97165.34;;;7.51;99.21
1694;BME280;71975;47.068;15.408;2023-11-21T23:12:41;97164.56;;;7.50;100.00
1694;BME280;71975;47.068;15.408;2023-11-21T23:17:44;97159.97;;;7.47;99.77
1694;BME280;71975;47.068;15.408;2023-11-21T23:22:49;97156.13;;;7.48;99.35
1694;BME280;71975;47.068;15.408;2023-11-21T23:27:52;97165.78;;;7.35;99.94
1694;BME280;71975;47.068;15.408;2023-11-21T23:32:56;97162.72;;;7.26;99.72
1694;BME280;71975;47.068;15.408;2023-11-21T23:38:00;97154.28;;;7.10;100.00
1694;BME280;71975;47.068;15.408;2023-11-21T23:43:03;97150.47;;;7.04;100.00
1694;BME280;71975;47.068;15.408;2023-11-21T23:48:06;97148.94;;;6.99;100.00
1694;BME280;71975;47.068;15.408;2023-11-21T23:53:11;97155.50;;;6.95;100.00
1694;BME280;71975;47.068;15.408;2023-11-21T23:58:14;97157.06;;;6.85;100.00
